Time,TemperatureF,DewpointF,PressureIn,WindDirection,WindDirectionDegrees,WindSpeedMPH,WindSpeedGustMPH,Humidity,HourlyPrecipIn,Conditions,Clouds,dailyrainin,SoftwareType,DateUTC
2013-04-22 00:05:00,40.3,28.3,30.28,South,172,2.8,3.6,62,0.00,,,0.00,WUHU216HW,2013-04-22 05:05:00,
2013-04-22 00:15:00,40.1,28.5,30.28,South,181,2.8,3.6,63,0.00,,,0.00,WUHU216HW,2013-04-22 05:15:00,
2013-04-22 00:25:00,39.8,28.2,30.28,South,186,2.4,3.6,63,0.00,,,0.00,WUHU216HW,2013-04-22 05:25:00,
2013-04-22 00:35:00,39.4,27.8,30.28,South,187,2.4,4.0,63,0.00,,,0.00,WUHU216HW,2013-04-22 05:35:00,
2013-04-22 00:45:00,39.2,27.6,30.28,South,187,2.4,2.6,63,0.00,,,0.00,WUHU216HW,2013-04-22 05:45:00,
2013-04-22 00:56:00,39.1,27.8,30.28,SSE,156,1.7,2.8,64,0.00,,,0.00,WUHU216HW,2013-04-22 05:56:00,
2013-04-22 01:06:00,38.9,27.6,30.28,South,174,2.1,3.0,64,0.00,,,0.00,WUHU216HW,2013-04-22 06:06:00,
2013-04-22 01:16:00,38.7,27.9,30.27,SSW,192,1.6,3.6,65,0.00,,,0.00,WUHU216HW,2013-04-22 06:16:00,
2013-04-22 01:26:00,38.5,27.7,30.28,South,176,1.9,2.6,65,0.00,,,0.00,WUHU216HW,2013-04-22 06:26:00,
2013-04-22 01:36:00,38.5,28.1,30.27,SW,215,2.0,2.6,66,0.00,,,0.00,WUHU216HW,2013-04-22 06:36:00,
2013-04-22 01:46:00,38.2,27.7,30.27,South,187,1.7,2.3,66,0.00,,,0.00,WUHU216HW,2013-04-22 06:46:00,
2013-04-22 01:56:00,38.0,28.0,30.27,South,186,1.7,2.1,67,0.00,,,0.00,WUHU216HW,2013-04-22 06:56:00,
2013-04-22 02:06:00,37.6,27.6,30.27,South,169,2.0,2.3,67,0.00,,,0.00,WUHU216HW,2013-04-22 07:06:00,
2013-04-22 02:16:00,37.4,27.9,30.26,South,176,2.1,2.6,68,0.00,,,0.00,WUHU216HW,2013-04-22 07:16:00,
2013-04-22 02:26:00,37.4,27.9,30.26,South,175,2.0,2.3,68,0.00,,,0.00,WUHU216HW,2013-04-22 07:26:00,
2013-04-22 02:36:00,37.4,28.3,30.26,South,177,2.6,3.6,69,0.00,,,0.00,WUHU216HW,2013-04-22 07:36:00,
2013-04-22 02:46:00,37.6,28.5,30.25,South,183,2.8,4.0,69,0.00,,,0.00,WUHU216HW,2013-04-22 07:46:00,
2013-04-22 02:56:00,37.6,28.5,30.25,SSE,168,2.4,2.8,69,0.00,,,0.00,WUHU216HW,2013-04-22 07:56:00,
2013-04-22 03:06:00,37.8,29.0,30.25,South,189,3.6,5.7,70,0.00,,,0.00,WUHU216HW,2013-04-22 08:06:00,
2013-04-22 03:16:00,37.8,29.0,30.24,South,189,3.0,4.0,70,0.00,,,0.00,WUHU216HW,2013-04-22 08:16:00,
2013-04-22 03:26:00,37.8,29.0,30.24,South,173,2.8,4.0,70,0.00,,,0.00,WUHU216HW,2013-04-22 08:26:00,
2013-04-22 03:36:00,38.2,29.3,30.24,South,172,3.5,4.9,70,0.00,,,0.00,WUHU216HW,2013-04-22 08:36:00,
2013-04-22 03:46:00,38.5,29.6,30.24,SSW,195,2.9,4.7,70,0.00,,,0.00,WUHU216HW,2013-04-22 08:46:00,
2013-04-22 03:56:00,38.9,29.9,30.24,South,187,3.3,4.2,70,0.00,,,0.00,WUHU216HW,2013-04-22 08:56:00,
2013-04-22 04:06:00,39.2,30.2,30.24,South,185,3.2,4.5,70,0.00,,,0.00,WUHU216HW,2013-04-22 09:06:00,
2013-04-22 04:16:00,39.2,29.9,30.24,SSE,168,2.9,3.6,69,0.00,,,0.00,WUHU216HW,2013-04-22 09:16:00,
2013-04-22 04:26:00,39.2,29.9,30.24,SSW,192,2.9,4.2,69,0.00,,,0.00,WUHU216HW,2013-04-22 09:26:00,
2013-04-22 04:36:00,39.2,29.9,30.24,South,179,2.9,4.2,69,0.00,,,0.00,WUHU216HW,2013-04-22 09:36:00,
2013-04-22 04:46:00,39.2,29.9,30.25,SSW,199,3.1,4.0,69,0.00,,,0.00,WUHU216HW,2013-04-22 09:46:00,
2013-04-22 04:56:00,39.2,29.9,30.25,South,183,2.7,4.2,69,0.00,,,0.00,WUHU216HW,2013-04-22 09:56:00,
2013-04-22 05:06:00,39.2,29.9,30.25,SSW,205,2.5,3.0,69,0.00,,,0.00,WUHU216HW,2013-04-22 10:06:00,
2013-04-22 05:16:00,39.4,30.1,30.25,SSW,209,2.9,3.6,69,0.00,,,0.00,WUHU216HW,2013-04-22 10:16:00,
2013-04-22 05:26:00,39.2,29.9,30.25,SSW,199,3.4,4.5,69,0.00,,,0.00,WUHU216HW,2013-04-22 10:26:00,
2013-04-22 05:36:00,38.9,29.5,30.25,South,185,2.4,3.6,69,0.00,,,0.00,WUHU216HW,2013-04-22 10:36:00,
2013-04-22 05:46:00,38.5,29.6,30.24,South,180,2.6,3.3,70,0.00,,,0.00,WUHU216HW,2013-04-22 10:46:00,
2013-04-22 05:56:00,38.5,29.6,30.24,South,187,2.6,3.6,70,0.00,,,0.00,WUHU216HW,2013-04-22 10:56:00,
2013-04-22 06:06:00,38.5,29.6,30.24,SSW,194,2.5,3.8,70,0.00,,,0.00,WUHU216HW,2013-04-22 11:06:00,
2013-04-22 06:16:00,38.5,30.0,30.24,SSW,201,2.5,3.6,71,0.00,,,0.00,WUHU216HW,2013-04-22 11:16:00,
2013-04-22 06:26:00,38.9,30.2,30.24,SSW,197,2.6,3.6,71,0.00,,,0.00,WUHU216HW,2013-04-22 11:26:00,
2013-04-22 06:36:00,40.9,32.2,30.24,South,184,2.3,3.6,71,0.00,,,0.00,WUHU216HW,2013-04-22 11:36:00,
2013-04-22 06:47:00,44.8,36.0,30.24,South,181,2.9,3.6,71,0.00,,,0.00,WUHU216HW,2013-04-22 11:47:00,
2013-04-22 06:57:00,49.0,38.4,30.24,South,188,3.3,4.2,67,0.00,,,0.00,WUHU216HW,2013-04-22 11:57:00,
2013-04-22 07:07:00,49.1,37.4,30.24,SSW,203,3.2,3.8,64,0.00,,,0.00,WUHU216HW,2013-04-22 12:07:00,
2013-04-22 07:17:00,48.2,36.3,30.24,SSW,206,3.1,4.2,63,0.00,,,0.00,WUHU216HW,2013-04-22 12:17:00,
2013-04-22 07:27:00,51.7,39.4,30.24,SSW,210,3.8,5.7,63,0.00,,,0.00,WUHU216HW,2013-04-22 12:27:00,
2013-04-22 07:37:00,52.4,38.4,30.24,SSW,211,3.4,4.9,59,0.00,,,0.00,WUHU216HW,2013-04-22 12:37:00,
2013-04-22 07:47:00,51.5,37.1,30.24,SSW,198,3.6,5.1,58,0.00,,,0.00,WUHU216HW,2013-04-22 12:47:00,
2013-04-22 07:57:00,50.0,35.8,30.24,South,179,3.4,4.2,58,0.00,,,0.00,WUHU216HW,2013-04-22 12:57:00,
2013-04-22 08:07:00,49.5,35.8,30.24,SSW,202,3.5,5.7,59,0.00,,,0.00,WUHU216HW,2013-04-22 13:07:00,
2013-04-22 08:17:00,49.9,36.1,30.23,SSW,202,3.2,3.8,59,0.00,,,0.00,WUHU216HW,2013-04-22 13:17:00,
2013-04-22 08:27:00,50.2,36.5,30.23,SSW,199,3.9,7.2,59,0.00,,,0.00,WUHU216HW,2013-04-22 13:27:00,
2013-04-22 08:37:00,50.4,36.6,30.23,SSW,202,3.6,5.1,59,0.00,,,0.00,WUHU216HW,2013-04-22 13:37:00,
2013-04-22 08:47:00,51.5,37.1,30.23,South,189,3.2,4.2,58,0.00,,,0.00,WUHU216HW,2013-04-22 13:47:00,
2013-04-22 08:57:00,51.5,36.6,30.23,South,190,3.8,6.6,57,0.00,,,0.00,WUHU216HW,2013-04-22 13:57:00,
2013-04-22 09:07:00,52.0,37.2,30.22,South,191,4.2,6.3,57,0.00,,,0.00,WUHU216HW,2013-04-22 14:07:00,
2013-04-22 09:17:00,53.3,37.9,30.22,South,190,4.6,7.8,56,0.00,,,0.00,WUHU216HW,2013-04-22 14:17:00,
2013-04-22 09:27:00,52.9,37.1,30.23,SSW,205,4.1,6.6,55,0.00,,,0.00,WUHU216HW,2013-04-22 14:27:00,
2013-04-22 09:37:00,52.6,36.8,30.23,SSW,212,3.4,4.2,55,0.00,,,0.00,WUHU216HW,2013-04-22 14:37:00,
2013-04-22 09:47:00,53.3,37.9,30.23,SSW,208,2.6,3.6,56,0.00,,,0.00,WUHU216HW,2013-04-22 14:47:00,
2013-04-22 09:57:00,54.5,38.6,30.23,SW,220,3.3,5.7,55,0.00,,,0.00,WUHU216HW,2013-04-22 14:57:00,
2013-04-22 10:07:00,56.5,40.5,30.22,South,183,3.0,4.9,55,0.00,,,0.00,WUHU216HW,2013-04-22 15:07:00,
2013-04-22 10:17:00,59.8,42.6,30.22,SSW,211,3.5,6.1,53,0.00,,,0.00,WUHU216HW,2013-04-22 15:17:00,
2013-04-22 10:27:00,61.4,42.6,30.22,SSW,199,4.2,5.7,50,0.00,,,0.00,WUHU216HW,2013-04-22 15:27:00,
2013-04-22 10:37:00,62.8,42.8,30.22,South,189,4.9,7.6,48,0.00,,,0.00,WUHU216HW,2013-04-22 15:37:00,
2013-04-22 10:47:00,63.7,43.6,30.22,SSW,192,4.3,6.1,48,0.00,,,0.00,WUHU216HW,2013-04-22 15:47:00,
2013-04-22 10:57:00,64.8,44.0,30.22,SSW,203,4.2,5.7,47,0.00,,,0.00,WUHU216HW,2013-04-22 15:57:00,
2013-04-22 11:07:00,65.2,43.7,30.21,SSW,202,3.2,5.1,46,0.00,,,0.00,WUHU216HW,2013-04-22 16:07:00,
2013-04-22 11:17:00,66.2,44.8,30.21,South,185,4.1,5.9,46,0.00,,,0.00,WUHU216HW,2013-04-22 16:17:00,
2013-04-22 11:27:00,66.1,44.0,30.21,SSW,192,5.1,7.6,45,0.00,,,0.00,WUHU216HW,2013-04-22 16:27:00,
2013-04-22 11:37:00,66.8,44.1,30.21,SW,217,4.3,5.4,44,0.00,,,0.00,WUHU216HW,2013-04-22 16:37:00,
2013-04-22 11:47:00,67.7,44.9,30.20,SW,219,4.1,4.5,44,0.00,,,0.00,WUHU216HW,2013-04-22 16:47:00,
2013-04-22 11:57:00,68.6,45.7,30.20,SW,215,4.0,6.8,44,0.00,,,0.00,WUHU216HW,2013-04-22 16:57:00,
2013-04-22 12:07:00,68.6,45.7,30.20,SW,230,6.0,8.9,44,0.00,,,0.00,WUHU216HW,2013-04-22 17:07:00,
2013-04-22 12:17:00,69.1,46.2,30.20,SW,232,6.2,8.5,44,0.00,,,0.00,WUHU216HW,2013-04-22 17:17:00,
2013-04-22 12:28:00,68.9,45.5,30.19,SW,223,6.3,8.2,43,0.00,,,0.00,WUHU216HW,2013-04-22 17:28:00,
2013-04-22 12:38:00,68.9,44.8,30.19,SW,215,5.3,8.0,42,0.00,,,0.00,WUHU216HW,2013-04-22 17:38:00,
2013-04-22 12:48:00,70.0,46.5,30.18,SSW,208,5.0,6.3,43,0.00,,,0.00,WUHU216HW,2013-04-22 17:48:00,
2013-04-22 12:58:00,69.7,44.9,30.18,SW,216,7.2,11.6,41,0.00,,,0.00,WUHU216HW,2013-04-22 17:58:00,
2013-04-22 13:08:00,69.8,46.3,30.17,SW,236,5.6,8.5,43,0.00,,,0.00,WUHU216HW,2013-04-22 18:08:00,
2013-04-22 13:18:00,70.2,46.0,30.17,SW,219,4.6,7.2,42,0.00,,,0.00,WUHU216HW,2013-04-22 18:18:00,
2013-04-22 13:28:00,70.0,45.2,30.16,South,177,4.5,5.1,41,0.00,,,0.00,WUHU216HW,2013-04-22 18:28:00,
2013-04-22 13:38:00,69.7,45.5,30.16,SW,226,5.3,6.8,42,0.00,,,0.00,WUHU216HW,2013-04-22 18:38:00,
2013-04-22 13:48:00,70.4,46.2,30.15,South,170,4.1,4.5,42,0.00,,,0.00,WUHU216HW,2013-04-22 18:48:00,
2013-04-22 13:58:00,71.3,46.4,30.15,SSW,209,5.0,7.2,41,0.00,,,0.00,WUHU216HW,2013-04-22 18:58:00,
2013-04-22 14:08:00,70.9,46.0,30.15,SSW,192,4.6,6.8,41,0.00,,,0.00,WUHU216HW,2013-04-22 19:08:00,
2013-04-22 14:18:00,70.9,46.0,30.15,South,189,4.3,6.1,41,0.00,,,0.00,WUHU216HW,2013-04-22 19:18:00,
2013-04-22 14:28:00,70.2,44.8,30.14,SSW,209,4.6,5.4,40,0.00,,,0.00,WUHU216HW,2013-04-22 19:28:00,
2013-04-22 14:38:00,70.0,45.8,30.14,SSW,198,3.5,6.6,42,0.00,,,0.00,WUHU216HW,2013-04-22 19:38:00,
2013-04-22 14:48:00,71.6,46.7,30.13,SW,214,3.8,4.9,41,0.00,,,0.00,WUHU216HW,2013-04-22 19:48:00,
2013-04-22 14:58:00,71.6,45.4,30.12,SSW,210,5.1,7.2,39,0.00,,,0.00,WUHU216HW,2013-04-22 19:58:00,
2013-04-22 15:08:00,70.7,44.6,30.11,South,175,3.1,4.9,39,0.00,,,0.00,WUHU216HW,2013-04-22 20:08:00,
2013-04-22 15:18:00,70.2,44.8,30.10,SSW,206,4.4,5.7,40,0.00,,,0.00,WUHU216HW,2013-04-22 20:18:00,
2013-04-22 15:28:00,69.7,43.6,30.10,South,172,4.5,5.7,39,0.00,,,0.00,WUHU216HW,2013-04-22 20:28:00,
2013-04-22 15:38:00,69.1,43.1,30.10,SSW,202,4.4,5.7,39,0.00,,,0.00,WUHU216HW,2013-04-22 20:38:00,
2013-04-22 15:48:00,69.5,43.4,30.09,SSW,193,6.0,9.1,39,0.00,,,0.00,WUHU216HW,2013-04-22 20:48:00,
2013-04-22 15:58:00,69.5,43.4,30.09,SSW,198,5.7,8.9,39,0.00,,,0.00,WUHU216HW,2013-04-22 20:58:00,
2013-04-22 16:08:00,69.8,43.0,30.09,SSW,194,4.2,6.1,38,0.00,,,0.00,WUHU216HW,2013-04-22 21:08:00,
2013-04-22 16:18:00,68.6,41.9,30.09,SE,140,3.5,5.1,38,0.00,,,0.00,WUHU216HW,2013-04-22 21:18:00,
2013-04-22 16:28:00,66.4,40.0,30.09,ESE,114,5.7,11.8,38,0.00,,,0.00,WUHU216HW,2013-04-22 21:28:00,
2013-04-22 16:38:00,65.2,40.9,30.08,East,89,5.5,9.9,41,0.00,,,0.00,WUHU216HW,2013-04-22 21:38:00,
2013-04-22 16:48:00,65.2,40.9,30.08,SSE,166,4.3,5.9,41,0.00,,,0.00,WUHU216HW,2013-04-22 21:48:00,
2013-04-22 16:58:00,65.3,41.0,30.08,SSE,165,4.7,7.8,41,0.00,,,0.00,WUHU216HW,2013-04-22 21:58:00,
2013-04-22 17:08:00,64.4,40.1,30.07,SE,140,4.5,5.4,41,0.00,,,0.00,WUHU216HW,2013-04-22 22:08:00,
2013-04-22 17:18:00,64.4,40.8,30.07,SE,145,5.1,8.2,42,0.00,,,0.00,WUHU216HW,2013-04-22 22:18:00,
2013-04-22 17:28:00,63.7,39.5,30.07,South,174,3.7,5.7,41,0.00,,,0.00,WUHU216HW,2013-04-22 22:28:00,
2013-04-22 17:38:00,62.8,38.7,30.07,SE,124,4.5,5.9,41,0.00,,,0.00,WUHU216HW,2013-04-22 22:38:00,
2013-04-22 17:48:00,62.5,39.0,30.07,SE,136,4.0,5.1,42,0.00,,,0.00,WUHU216HW,2013-04-22 22:48:00,
2013-04-22 17:58:00,62.5,39.0,30.07,SSE,157,4.6,6.6,42,0.00,,,0.00,WUHU216HW,2013-04-22 22:58:00,
2013-04-22 18:09:00,61.9,39.1,30.07,SE,145,3.1,3.8,43,0.00,,,0.00,WUHU216HW,2013-04-22 23:09:00,
2013-04-22 18:19:00,61.6,38.7,30.06,SE,145,5.0,6.8,43,0.00,,,0.00,WUHU216HW,2013-04-22 23:19:00,
2013-04-22 18:29:00,61.6,38.7,30.06,SE,141,5.0,8.0,43,0.00,,,0.00,WUHU216HW,2013-04-22 23:29:00,
2013-04-22 18:39:00,61.0,38.3,30.06,SSE,155,4.7,7.2,43,0.00,,,0.00,WUHU216HW,2013-04-22 23:39:00,
2013-04-22 18:49:00,59.9,37.3,30.06,SSE,147,3.7,4.9,43,0.00,,,0.00,WUHU216HW,2013-04-22 23:49:00,
2013-04-22 18:59:00,58.7,36.2,30.06,SE,142,4.3,6.1,43,0.00,,,0.00,WUHU216HW,2013-04-22 23:59:00,
2013-04-22 19:09:00,57.2,34.8,30.06,SE,141,3.9,5.1,43,0.00,,,0.00,WUHU216HW,2013-04-23 00:09:00,
2013-04-22 19:19:00,56.7,34.9,30.05,SSE,149,3.6,4.5,44,0.00,,,0.00,WUHU216HW,2013-04-23 00:19:00,
2013-04-22 19:29:00,55.8,34.1,30.05,SE,144,4.3,6.1,44,0.00,,,0.00,WUHU216HW,2013-04-23 00:29:00,
2013-04-22 19:39:00,55.1,33.9,30.05,SSE,154,2.9,4.2,45,0.00,,,0.00,WUHU216HW,2013-04-23 00:39:00,
2013-04-22 19:49:00,54.4,33.8,30.05,SE,140,4.0,5.7,46,0.00,,,0.00,WUHU216HW,2013-04-23 00:49:00,
2013-04-22 19:59:00,54.0,33.6,30.05,SSE,148,3.3,4.0,46,0.00,,,0.00,WUHU216HW,2013-04-23 00:59:00,
2013-04-22 20:09:00,53.6,33.2,30.05,SE,146,4.3,5.7,46,0.00,,,0.00,WUHU216HW,2013-04-23 01:09:00,
2013-04-22 20:19:00,53.1,33.3,30.05,SSE,149,3.5,4.9,47,0.00,,,0.00,WUHU216HW,2013-04-23 01:19:00,
2013-04-22 20:29:00,52.7,32.9,30.05,SSE,147,3.1,4.0,47,0.00,,,0.00,WUHU216HW,2013-04-23 01:29:00,
2013-04-22 20:39:00,52.4,33.2,30.05,SSE,152,2.5,4.5,48,0.00,,,0.00,WUHU216HW,2013-04-23 01:39:00,
2013-04-22 20:49:00,52.2,33.0,30.05,SSE,150,3.3,4.2,48,0.00,,,0.00,WUHU216HW,2013-04-23 01:49:00,
2013-04-22 20:59:00,52.2,33.0,30.05,SE,141,3.9,5.9,48,0.00,,,0.00,WUHU216HW,2013-04-23 01:59:00,
2013-04-22 21:09:00,51.7,33.1,30.06,SE,146,3.2,5.1,49,0.00,,,0.00,WUHU216HW,2013-04-23 02:09:00,
2013-04-22 21:19:00,51.3,32.8,30.06,SSE,155,3.5,4.5,49,0.00,,,0.00,WUHU216HW,2013-04-23 02:19:00,
2013-04-22 21:29:00,51.1,33.2,30.06,SSE,147,3.5,4.9,50,0.00,,,0.00,WUHU216HW,2013-04-23 02:29:00,
2013-04-22 21:39:00,50.8,32.9,30.06,SE,146,3.5,5.4,50,0.00,,,0.00,WUHU216HW,2013-04-23 02:39:00,
2013-04-22 21:49:00,50.6,32.7,30.06,SE,139,2.6,3.8,50,0.00,,,0.00,WUHU216HW,2013-04-23 02:49:00,
2013-04-22 21:59:00,50.2,32.9,30.06,SSE,150,3.2,4.2,51,0.00,,,0.00,WUHU216HW,2013-04-23 02:59:00,
2013-04-22 22:09:00,50.2,32.9,30.05,SSE,154,3.7,5.7,51,0.00,,,0.00,WUHU216HW,2013-04-23 03:09:00,
2013-04-22 22:19:00,50.0,33.1,30.06,SSE,147,3.0,4.2,52,0.00,,,0.00,WUHU216HW,2013-04-23 03:19:00,
2013-04-22 22:29:00,50.0,33.1,30.05,South,172,3.0,4.0,52,0.00,,,0.00,WUHU216HW,2013-04-23 03:29:00,
2013-04-22 22:39:00,50.0,33.1,30.05,South,176,3.2,4.0,52,0.00,,,0.00,WUHU216HW,2013-04-23 03:39:00,
2013-04-22 22:49:00,50.0,33.1,30.05,SSE,158,3.3,4.9,52,0.00,,,0.00,WUHU216HW,2013-04-23 03:49:00,
2013-04-22 22:59:00,50.0,33.1,30.05,SSE,153,3.6,4.7,52,0.00,,,0.00,WUHU216HW,2013-04-23 03:59:00,
2013-04-22 23:09:00,49.9,33.4,30.04,South,169,3.2,3.6,53,0.00,,,0.00,WUHU216HW,2013-04-23 04:09:00,
2013-04-22 23:19:00,49.7,33.2,30.04,SSE,161,3.0,3.8,53,0.00,,,0.00,WUHU216HW,2013-04-23 04:19:00,
2013-04-22 23:30:00,49.5,33.5,30.04,South,170,3.2,4.7,54,0.00,,,0.00,WUHU216HW,2013-04-23 04:30:00,
2013-04-22 23:40:00,49.5,33.9,30.04,South,169,2.7,4.7,55,0.00,,,0.00,WUHU216HW,2013-04-23 04:40:00,
2013-04-22 23:50:00,49.3,33.8,30.03,South,176,2.9,4.2,55,0.00,,,0.00,WUHU216HW,2013-04-23 04:50:00,